Time;durP1;ratioP1;P1;durP2;ratioP2;P2;SDS_P1;SDS_P2;PMS_P1;PMS_P2;Temp;Humidity;BMP_temperature;BMP_pressure;BME280_temperature;BME280_humidity;BME280_pressure;Samples;Min_cycle;Max_cycle;Signal;HPM_P1;HPM_P2
2021/07/02 00:00:22;;;;;;;5.70;3.15;;;;;;;;;;4996021;28;20056;-80
2021/07/02 00:02:49;;;;;;;5.43;3.38;;;;;;;;;;4996242;28;20054;-80
2021/07/02 00:05:17;;;;;;;5.32;3.17;;;;;;;;;;4995985;28;20411;-79
2021/07/02 00:07:43;;;;;;;6.18;3.10;;;;;;;;;;4995661;28;20047;-79
2021/07/02 00:10:11;;;;;;;6.18;3.47;;;;;;;;;;4995586;28;20455;-79
2021/07/02 00:12:38;;;;;;;5.50;3.00;;;;;;;;;;4985286;28;20050;-80
2021/07/02 00:15:06;;;;;;;6.75;3.10;;;;;;;;;;4987572;28;20046;-80
2021/07/02 00:17:32;;;;;;;5.95;3.65;;;;;;;;;;4992781;28;20054;-79
2021/07/02 00:19:59;;;;;;;6.88;3.17;;;;;;;;;;4985031;28;20058;-79
2021/07/02 00:22:27;;;;;;;5.10;2.90;;;;;;;;;;4992158;28;20042;-79
2021/07/02 00:24:53;;;;;;;6.22;3.42;;;;;;;;;;4979492;28;20038;-79
2021/07/02 00:27:20;;;;;;;5.38;3.35;;;;;;;;;;4986157;28;20557;-80
2021/07/02 00:29:46;;;;;;;5.10;3.67;;;;;;;;;;4978285;28;20054;-80
2021/07/02 00:32:13;;;;;;;6.22;2.70;;;;;;;;;;4983382;28;20046;-80
2021/07/02 00:34:40;;;;;;;6.00;3.35;;;;;;;;;;4995835;28;20051;-80
2021/07/02 00:37:06;;;;;;;5.13;3.03;;;;;;;;;;4996022;28;20058;-79
2021/07/02 00:39:34;;;;;;;5.10;3.15;;;;;;;;;;4995757;28;20046;-80
2021/07/02 00:42:00;;;;;;;6.32;3.33;;;;;;;;;;4995247;28;20050;-79
2021/07/02 00:44:38;;;;;;;5.90;2.80;;;;;;;;;;4995426;28;20046;-81
2021/07/02 00:47:05;;;;;;;6.70;3.47;;;;;;;;;;4995294;28;20058;-79
2021/07/02 00:49:31;;;;;;;5.57;3.63;;;;;;;;;;4995206;28;20061;-79
2021/07/02 00:51:58;;;;;;;5.25;2.90;;;;;;;;;;4995474;28;20069;-80
2021/07/02 00:54:24;;;;;;;6.25;4.38;;;;;;;;;;4995441;28;20051;-79
2021/07/02 00:56:52;;;;;;;6.25;3.05;;;;;;;;;;4995262;28;20054;-79
2021/07/02 00:59:18;;;;;;;6.05;3.70;;;;;;;;;;4994976;28;20392;-79
2021/07/02 01:01:45;;;;;;;4.72;2.60;;;;;;;;;;4993597;28;20172;-78
2021/07/02 01:04:11;;;;;;;5.30;3.08;;;;;;;;;;4995346;28;20053;-80
2021/07/02 01:06:38;;;;;;;5.32;3.20;;;;;;;;;;4981200;28;20046;-80
2021/07/02 01:09:05;;;;;;;5.60;3.90;;;;;;;;;;4975087;28;20061;-79
2021/07/02 01:11:33;;;;;;;6.32;3.40;;;;;;;;;;4975431;28;20492;-78
2021/07/02 01:14:01;;;;;;;7.65;4.00;;;;;;;;;;4975806;28;20472;-79
2021/07/02 01:16:27;;;;;;;4.93;2.85;;;;;;;;;;4989145;28;20495;-81
2021/07/02 01:18:54;;;;;;;6.20;3.28;;;;;;;;;;4988885;28;20054;-79
2021/07/02 01:21:21;;;;;;;6.97;3.50;;;;;;;;;;4976463;28;20042;-81
2021/07/02 01:23:48;;;;;;;5.97;3.42;;;;;;;;;;4975807;28;20063;-79
2021/07/02 01:26:15;;;;;;;5.13;3.30;;;;;;;;;;4989409;28;20046;-80
2021/07/02 01:28:43;;;;;;;5.75;2.80;;;;;;;;;;4995082;28;20050;-79
2021/07/02 01:31:09;;;;;;;7.22;3.45;;;;;;;;;;4994997;28;20046;-80
2021/07/02 01:33:36;;;;;;;4.88;3.40;;;;;;;;;;4995308;28;20050;-80
2021/07/02 01:36:05;;;;;;;5.72;3.17;;;;;;;;;;4983525;28;20051;-79
2021/07/02 01:38:33;;;;;;;5.72;3.03;;;;;;;;;;4980849;28;20072;-79
2021/07/02 01:40:59;;;;;;;6.10;3.33;;;;;;;;;;4995087;28;20069;-80
2021/07/02 01:43:26;;;;;;;5.20;3.08;;;;;;;;;;4994738;28;20050;-80
2021/07/02 01:45:53;;;;;;;6.80;3.28;;;;;;;;;;4984306;28;20125;-81
2021/07/02 01:48:19;;;;;;;7.53;3.70;;;;;;;;;;4975972;28;20054;-79
2021/07/02 01:50:46;;;;;;;5.85;3.20;;;;;;;;;;4975903;28;20046;-79
2021/07/02 01:53:12;;;;;;;4.78;2.92;;;;;;;;;;4976145;28;20046;-79
2021/07/02 01:55:40;;;;;;;5.32;3.30;;;;;;;;;;4975933;28;20055;-80
2021/07/02 01:58:06;;;;;;;5.15;2.92;;;;;;;;;;4975875;28;20058;-81
2021/07/02 02:00:34;;;;;;;5.32;2.70;;;;;;;;;;4976520;28;20059;-79
2021/07/02 02:03:00;;;;;;;5.55;3.20;;;;;;;;;;4976093;28;20050;-81
2021/07/02 02:05:27;;;;;;;8.60;4.30;;;;;;;;;;4976236;28;20051;-81
2021/07/02 02:07:53;;;;;;;6.25;3.55;;;;;;;;;;4988764;28;20046;-79
2021/07/02 02:10:20;;;;;;;9.85;3.72;;;;;;;;;;4992573;28;20042;-79
2021/07/02 02:12:47;;;;;;;8.35;3.78;;;;;;;;;;4978991;28;20054;-79
2021/07/02 02:15:14;;;;;;;4.97;2.92;;;;;;;;;;4994086;28;20053;-80
2021/07/02 02:17:42;;;;;;;4.75;2.85;;;;;;;;;;4978489;28;20059;-79
2021/07/02 02:20:10;;;;;;;4.85;3.15;;;;;;;;;;4987111;28;20043;-80
2021/07/02 02:22:37;;;;;;;7.78;3.83;;;;;;;;;;4980154;28;20518;-80
2021/07/02 02:25:05;;;;;;;7.00;4.15;;;;;;;;;;4992091;28;20479;-80
2021/07/02 02:27:31;;;;;;;5.82;3.10;;;;;;;;;;4994402;28;20049;-80
2021/07/02 02:29:59;;;;;;;8.40;3.80;;;;;;;;;;5000275;28;20046;-80
2021/07/02 02:32:26;;;;;;;6.43;3.53;;;;;;;;;;4989739;28;20101;-80
2021/07/02 02:34:53;;;;;;;6.90;3.80;;;;;;;;;;4989376;28;20499;-80
2021/07/02 02:37:19;;;;;;;7.53;3.45;;;;;;;;;;4997399;28;20054;-84
2021/07/02 02:39:46;;;;;;;7.55;3.70;;;;;;;;;;4981317;28;20054;-80
2021/07/02 02:42:13;;;;;;;4.85;3.33;;;;;;;;;;4996946;28;20057;-82
2021/07/02 02:44:39;;;;;;;7.88;3.22;;;;;;;;;;4990341;28;20047;-82
2021/07/02 02:47:07;;;;;;;4.97;2.92;;;;;;;;;;4994836;28;20045;-80
2021/07/02 02:49:34;;;;;;;4.90;2.67;;;;;;;;;;4987539;28;20053;-81
2021/07/02 02:52:00;;;;;;;7.13;4.05;;;;;;;;;;4995669;28;20073;-80
2021/07/02 02:54:27;;;;;;;6.90;3.55;;;;;;;;;;4990132;28;20045;-81
2021/07/02 02:57:06;;;;;;;6.63;3.17;;;;;;;;;;5000056;28;20043;-82
2021/07/02 02:59:34;;;;;;;7.85;4.10;;;;;;;;;;5002391;28;20146;-81
2021/07/02 03:02:01;;;;;;;6.70;3.78;;;;;;;;;;5002932;28;20054;-83
2021/07/02 03:04:29;;;;;;;5.80;3.25;;;;;;;;;;5002944;28;20046;-82
2021/07/02 03:06:55;;;;;;;5.57;3.03;;;;;;;;;;5002304;28;20053;-81
2021/07/02 03:09:22;;;;;;;7.18;3.85;;;;;;;;;;5003453;28;20173;-83
2021/07/02 03:11:51;;;;;;;7.32;3.85;;;;;;;;;;5002824;28;20050;-83
2021/07/02 03:14:18;;;;;;;6.95;3.50;;;;;;;;;;5002606;28;20137;-83
2021/07/02 03:16:44;;;;;;;7.22;3.70;;;;;;;;;;5002990;28;20058;-84
2021/07/02 03:19:10;;;;;;;7.20;3.38;;;;;;;;;;5003682;28;20491;-82
2021/07/02 03:21:38;;;;;;;9.10;4.13;;;;;;;;;;5004059;28;20046;-82
2021/07/02 03:24:06;;;;;;;6.45;3.47;;;;;;;;;;5003911;28;20089;-82
2021/07/02 03:26:33;;;;;;;7.85;3.83;;;;;;;;;;4989661;28;20050;-82
2021/07/02 03:28:59;;;;;;;6.18;3.45;;;;;;;;;;4979794;28;20050;-80
2021/07/02 03:31:26;;;;;;;6.65;3.42;;;;;;;;;;4975956;28;20062;-81
2021/07/02 03:33:52;;;;;;;5.35;3.33;;;;;;;;;;4977278;28;20049;-81
2021/07/02 03:36:19;;;;;;;6.25;3.75;;;;;;;;;;4977082;28;20218;-80
2021/07/02 03:38:46;;;;;;;9.23;4.30;;;;;;;;;;4977123;28;20065;-80
2021/07/02 03:41:13;;;;;;;7.72;4.20;;;;;;;;;;4993157;28;20054;-80
2021/07/02 03:43:39;;;;;;;7.15;4.18;;;;;;;;;;4995935;28;20046;-81
2021/07/02 03:46:06;;;;;;;6.68;3.33;;;;;;;;;;4996282;28;20050;-80
2021/07/02 03:48:33;;;;;;;5.72;3.83;;;;;;;;;;4996462;28;20050;-80
2021/07/02 03:50:59;;;;;;;5.28;3.13;;;;;;;;;;4996112;28;20050;-80
2021/07/02 03:53:26;;;;;;;5.25;3.25;;;;;;;;;;4995993;28;20046;-80
2021/07/02 03:55:53;;;;;;;6.50;3.80;;;;;;;;;;4996024;28;20054;-80
2021/07/02 03:58:20;;;;;;;7.97;3.72;;;;;;;;;;4995930;28;20407;-80
2021/07/02 04:00:46;;;;;;;6.28;3.88;;;;;;;;;;4996378;28;20050;-80
2021/07/02 04:03:14;;;;;;;7.15;3.72;;;;;;;;;;4996269;28;20062;-81
2021/07/02 04:05:43;;;;;;;7.65;4.45;;;;;;;;;;4990083;28;20070;-81
2021/07/02 04:08:10;;;;;;;8.45;3.88;;;;;;;;;;4976312;28;20055;-80
2021/07/02 04:10:36;;;;;;;6.47;3.85;;;;;;;;;;4976299;28;20058;-80
2021/07/02 04:13:04;;;;;;;14.35;3.97;;;;;;;;;;4976514;28;20046;-80
2021/07/02 04:15:32;;;;;;;7.47;3.78;;;;;;;;;;4980300;28;20054;-83
2021/07/02 04:17:58;;;;;;;7.10;3.38;;;;;;;;;;4995923;28;20372;-80
2021/07/02 04:20:25;;;;;;;10.02;4.00;;;;;;;;;;4987719;28;20047;-80
2021/07/02 04:22:51;;;;;;;8.82;3.80;;;;;;;;;;4976548;28;20054;-81
2021/07/02 04:25:18;;;;;;;7.60;3.85;;;;;;;;;;4975721;28;20451;-80
2021/07/02 04:27:44;;;;;;;8.05;3.70;;;;;;;;;;4975822;28;20047;-80
2021/07/02 04:30:13;;;;;;;6.30;3.90;;;;;;;;;;4976372;28;20082;-80
2021/07/02 04:32:40;;;;;;;10.10;3.95;;;;;;;;;;4975955;28;20230;-80
2021/07/02 04:35:09;;;;;;;6.28;3.95;;;;;;;;;;4976523;28;20054;-80
2021/07/02 04:37:35;;;;;;;6.50;3.55;;;;;;;;;;4995415;28;20081;-82
2021/07/02 04:40:03;;;;;;;5.35;3.00;;;;;;;;;;4995133;28;20046;-81
2021/07/02 04:42:29;;;;;;;5.90;3.35;;;;;;;;;;4995271;28;20046;-80
2021/07/02 04:44:55;;;;;;;5.55;3.33;;;;;;;;;;4995045;28;20048;-81
2021/07/02 04:47:23;;;;;;;7.50;3.50;;;;;;;;;;4976972;28;20050;-82
2021/07/02 04:49:50;;;;;;;6.03;3.15;;;;;;;;;;4975790;28;20058;-80
2021/07/02 04:52:16;;;;;;;5.90;3.60;;;;;;;;;;4975027;28;20046;-80
2021/07/02 04:54:43;;;;;;;7.28;3.88;;;;;;;;;;4976114;28;20054;-80
2021/07/02 04:57:09;;;;;;;9.02;4.35;;;;;;;;;;4977393;28;20515;-80
2021/07/02 04:59:36;;;;;;;6.38;3.38;;;;;;;;;;4976585;28;20089;-81
2021/07/02 05:02:03;;;;;;;7.22;3.55;;;;;;;;;;4976291;28;20051;-80
2021/07/02 05:04:31;;;;;;;6.22;4.00;;;;;;;;;;4976350;28;20058;-82
2021/07/02 05:06:57;;;;;;;7.50;3.92;;;;;;;;;;4975930;28;20047;-81
2021/07/02 05:09:24;;;;;;;8.48;3.67;;;;;;;;;;4975547;28;20523;-80
2021/07/02 05:11:51;;;;;;;9.13;3.67;;;;;;;;;;4995051;28;20046;-81
2021/07/02 05:14:18;;;;;;;8.77;4.03;;;;;;;;;;4995023;28;20517;-82
2021/07/02 05:16:44;;;;;;;10.02;4.65;;;;;;;;;;4994989;28;20101;-83
2021/07/02 05:19:11;;;;;;;5.95;3.88;;;;;;;;;;4994571;28;20495;-82
2021/07/02 05:21:38;;;;;;;9.00;4.93;;;;;;;;;;4994565;28;20514;-80
2021/07/02 05:24:05;;;;;;;6.07;3.38;;;;;;;;;;4994260;28;20550;-81
2021/07/02 05:26:32;;;;;;;5.88;3.35;;;;;;;;;;4994273;28;20518;-80
2021/07/02 05:28:58;;;;;;;11.82;3.83;;;;;;;;;;4983715;28;20434;-81
2021/07/02 05:31:24;;;;;;;6.43;3.88;;;;;;;;;;4994019;28;20487;-81
2021/07/02 05:33:51;;;;;;;5.85;3.50;;;;;;;;;;4993990;28;20046;-80
2021/07/02 05:36:18;;;;;;;7.30;3.75;;;;;;;;;;4994629;28;20046;-80
2021/07/02 05:38:45;;;;;;;6.20;3.35;;;;;;;;;;4977907;28;20054;-81
2021/07/02 05:41:12;;;;;;;6.53;4.07;;;;;;;;;;4975925;28;20170;-81
2021/07/02 05:43:39;;;;;;;5.57;3.78;;;;;;;;;;4985222;28;20050;-81
2021/07/02 05:46:07;;;;;;;9.98;5.07;;;;;;;;;;4983304;28;20054;-81
2021/07/02 05:48:34;;;;;;;7.35;3.83;;;;;;;;;;4975561;28;20143;-83
2021/07/02 05:51:00;;;;;;;10.60;5.28;;;;;;;;;;4975033;28;20050;-81
2021/07/02 05:53:27;;;;;;;9.45;5.18;;;;;;;;;;4988758;28;20062;-81
2021/07/02 05:55:55;;;;;;;9.75;5.88;;;;;;;;;;4994999;28;20051;-82
2021/07/02 05:58:21;;;;;;;12.40;5.97;;;;;;;;;;4993255;28;20049;-82
2021/07/02 06:00:48;;;;;;;10.10;5.80;;;;;;;;;;4985244;28;20054;-82
2021/07/02 06:03:14;;;;;;;8.90;5.15;;;;;;;;;;4993648;28;20058;-80
2021/07/02 06:05:40;;;;;;;9.18;6.22;;;;;;;;;;4994623;28;20081;-83
2021/07/02 06:08:07;;;;;;;10.35;5.38;;;;;;;;;;4994028;28;20051;-81
2021/07/02 06:10:33;;;;;;;8.80;5.50;;;;;;;;;;4994031;28;20056;-81
2021/07/02 06:13:01;;;;;;;11.38;4.57;;;;;;;;;;4994053;28;20061;-81
2021/07/02 06:15:28;;;;;;;10.10;5.50;;;;;;;;;;4992290;28;20050;-81
2021/07/02 06:17:55;;;;;;;21.40;6.38;;;;;;;;;;4993866;28;20047;-81
2021/07/02 06:20:24;;;;;;;8.77;5.10;;;;;;;;;;4994188;28;20046;-81
2021/07/02 06:22:50;;;;;;;9.18;5.60;;;;;;;;;;4993597;28;20050;-81
2021/07/02 06:25:17;;;;;;;8.65;5.20;;;;;;;;;;4993433;28;20056;-80
2021/07/02 06:27:44;;;;;;;9.95;5.50;;;;;;;;;;4984455;28;20519;-82
2021/07/02 06:30:13;;;;;;;10.20;5.80;;;;;;;;;;4978819;28;20056;-81
2021/07/02 06:32:40;;;;;;;8.60;5.88;;;;;;;;;;4993191;28;20057;-82
2021/07/02 06:35:07;;;;;;;10.02;5.72;;;;;;;;;;4993187;28;20049;-81
2021/07/02 06:37:34;;;;;;;9.05;5.57;;;;;;;;;;4993790;28;20046;-81
2021/07/02 06:40:01;;;;;;;6.97;4.90;;;;;;;;;;4990698;28;20042;-82
2021/07/02 06:42:27;;;;;;;9.68;6.15;;;;;;;;;;4974774;28;20066;-81
2021/07/02 06:44:53;;;;;;;10.82;5.70;;;;;;;;;;4974791;28;20046;-80
2021/07/02 06:47:21;;;;;;;8.10;4.88;;;;;;;;;;4974572;28;20051;-81
2021/07/02 06:49:48;;;;;;;7.50;4.38;;;;;;;;;;4973990;28;20055;-81
2021/07/02 06:52:14;;;;;;;8.68;4.65;;;;;;;;;;4973587;28;20054;-81
2021/07/02 06:54:40;;;;;;;7.65;5.05;;;;;;;;;;4974023;28;20055;-80
2021/07/02 06:57:09;;;;;;;8.60;4.82;;;;;;;;;;4974088;28;20496;-80
2021/07/02 06:59:37;;;;;;;7.45;4.40;;;;;;;;;;4974348;28;20152;-81
2021/07/02 07:02:05;;;;;;;7.45;4.40;;;;;;;;;;4973719;28;20059;-81
2021/07/02 07:04:35;;;;;;;9.50;5.95;;;;;;;;;;4973607;28;20047;-81
2021/07/02 07:07:02;;;;;;;7.63;4.68;;;;;;;;;;4976617;28;20133;-81
2021/07/02 07:09:28;;;;;;;6.80;4.20;;;;;;;;;;4977339;28;20058;-81
2021/07/02 07:11:56;;;;;;;7.32;4.75;;;;;;;;;;4977329;28;20057;-81
2021/07/02 07:14:22;;;;;;;7.15;4.13;;;;;;;;;;4977373;28;20058;-80
2021/07/02 07:16:49;;;;;;;6.70;4.97;;;;;;;;;;4977056;28;20770;-80
2021/07/02 07:19:16;;;;;;;6.90;4.90;;;;;;;;;;4993762;28;20042;-80
2021/07/02 07:21:43;;;;;;;8.05;5.20;;;;;;;;;;4996463;28;20392;-80
2021/07/02 07:24:10;;;;;;;7.40;4.80;;;;;;;;;;4985453;28;20058;-81
2021/07/02 07:26:36;;;;;;;5.53;4.03;;;;;;;;;;4976750;28;20053;-81
2021/07/02 07:29:05;;;;;;;7.20;4.15;;;;;;;;;;4995554;28;20047;-80
2021/07/02 07:31:31;;;;;;;6.70;4.05;;;;;;;;;;4981423;28;20051;-82
2021/07/02 07:33:59;;;;;;;6.55;4.53;;;;;;;;;;4984123;28;20065;-80
2021/07/02 07:36:25;;;;;;;8.10;5.00;;;;;;;;;;4990888;28;20050;-81
2021/07/02 07:38:53;;;;;;;5.50;3.78;;;;;;;;;;4976720;28;20051;-80
2021/07/02 07:41:20;;;;;;;8.05;4.97;;;;;;;;;;4977101;28;20053;-82
2021/07/02 07:43:47;;;;;;;7.38;4.72;;;;;;;;;;4976945;28;20057;-80
2021/07/02 07:46:13;;;;;;;10.10;4.88;;;;;;;;;;4976822;28;20043;-81
2021/07/02 07:48:40;;;;;;;6.78;4.00;;;;;;;;;;4988016;28;20054;-81
2021/07/02 07:51:16;;;;;;;6.32;4.10;;;;;;;;;;4988412;28;20043;-81
2021/07/02 07:53:43;;;;;;;6.78;4.43;;;;;;;;;;4976869;28;20050;-80
2021/07/02 07:56:11;;;;;;;7.88;4.07;;;;;;;;;;4983519;28;20057;-82
2021/07/02 07:58:37;;;;;;;6.38;4.22;;;;;;;;;;4996273;28;20062;-82
2021/07/02 08:01:04;;;;;;;6.13;4.22;;;;;;;;;;4996186;28;20043;-81
2021/07/02 08:03:30;;;;;;;5.47;3.88;;;;;;;;;;4996065;28;20054;-80
2021/07/02 08:05:57;;;;;;;5.63;3.95;;;;;;;;;;4995684;28;20506;-80
2021/07/02 08:08:23;;;;;;;6.85;3.90;;;;;;;;;;4996137;28;20046;-80
2021/07/02 08:10:50;;;;;;;5.78;3.75;;;;;;;;;;4996176;28;20058;-82
2021/07/02 08:13:18;;;;;;;5.10;3.53;;;;;;;;;;4996206;28;20042;-80
2021/07/02 08:15:44;;;;;;;5.50;3.40;;;;;;;;;;4996213;28;20057;-80
2021/07/02 08:18:11;;;;;;;6.95;4.22;;;;;;;;;;4995472;28;20053;-80
2021/07/02 08:20:37;;;;;;;5.55;3.97;;;;;;;;;;4980492;28;20396;-81
2021/07/02 08:23:08;;;;;;;5.45;4.45;;;;;;;;;;4984262;28;20500;-81
2021/07/02 08:25:34;;;;;;;6.45;4.38;;;;;;;;;;4996506;28;20053;-81
2021/07/02 08:30:47;;;;;;;6.97;4.25;;;;;;;;;;4987245;28;20054;-80
2021/07/02 08:33:16;;;;;;;5.78;3.50;;;;;;;;;;4995466;28;20051;-81
2021/07/02 08:35:43;;;;;;;9.95;4.15;;;;;;;;;;4982713;28;20069;-80
2021/07/02 08:38:09;;;;;;;6.72;4.07;;;;;;;;;;4976205;28;20051;-81
2021/07/02 08:40:36;;;;;;;5.38;3.67;;;;;;;;;;4976757;28;20051;-80
2021/07/02 08:43:03;;;;;;;5.68;3.72;;;;;;;;;;4987462;28;20077;-81
2021/07/02 08:45:29;;;;;;;5.95;4.07;;;;;;;;;;4995502;28;20057;-81
2021/07/02 08:47:59;;;;;;;6.63;3.70;;;;;;;;;;4987959;28;20042;-82
2021/07/02 08:50:26;;;;;;;6.07;3.83;;;;;;;;;;4992263;28;20046;-81
2021/07/02 08:52:52;;;;;;;6.80;4.10;;;;;;;;;;4987138;28;20543;-83
2021/07/02 08:55:19;;;;;;;4.75;3.55;;;;;;;;;;4976187;28;20400;-81
2021/07/02 08:57:45;;;;;;;6.28;3.67;;;;;;;;;;4976166;28;20051;-81
2021/07/02 09:00:12;;;;;;;5.28;3.30;;;;;;;;;;4992090;28;20045;-81
2021/07/02 09:02:40;;;;;;;7.32;3.70;;;;;;;;;;4982620;28;20051;-80
2021/07/02 09:05:26;;;;;;;8.00;3.60;;;;;;;;;;4976043;28;20649;-81
2021/07/02 09:07:52;;;;;;;5.05;3.50;;;;;;;;;;4985683;28;20046;-81
2021/07/02 09:10:19;;;;;;;4.97;3.38;;;;;;;;;;4994847;28;20046;-81
2021/07/02 09:12:51;;;;;;;6.78;3.65;;;;;;;;;;4985872;28;20054;-82
2021/07/02 09:15:18;;;;;;;6.68;3.70;;;;;;;;;;4975545;28;20043;-82
2021/07/02 09:17:54;;;;;;;6.43;3.63;;;;;;;;;;4981833;28;20514;-83
2021/07/02 09:20:23;;;;;;;6.18;3.83;;;;;;;;;;4994660;28;20051;-81
2021/07/02 09:22:52;;;;;;;5.25;3.47;;;;;;;;;;4995230;28;20050;-82
2021/07/02 09:25:27;;;;;;;8.15;4.18;;;;;;;;;;4995382;28;20407;-81
2021/07/02 09:27:55;;;;;;;5.70;3.22;;;;;;;;;;4995162;28;20054;-83
2021/07/02 09:30:23;;;;;;;4.88;3.33;;;;;;;;;;4989522;28;20093;-81
2021/07/02 09:32:51;;;;;;;5.68;3.60;;;;;;;;;;4981058;28;20053;-81
2021/07/02 09:35:19;;;;;;;4.53;3.38;;;;;;;;;;4984251;28;20053;-82
2021/07/02 09:37:48;;;;;;;4.47;3.72;;;;;;;;;;4994960;28;20046;-82
2021/07/02 09:40:20;;;;;;;4.47;3.20;;;;;;;;;;4994349;28;20471;-81
2021/07/02 09:42:48;;;;;;;6.07;4.00;;;;;;;;;;4995348;28;20085;-81
2021/07/02 09:45:15;;;;;;;6.72;3.42;;;;;;;;;;4995231;28;20418;-81
2021/07/02 09:47:43;;;;;;;6.38;3.95;;;;;;;;;;4994844;28;20569;-81
2021/07/02 09:50:14;;;;;;;6.18;3.60;;;;;;;;;;4994778;28;20507;-81
2021/07/02 09:52:49;;;;;;;6.60;3.55;;;;;;;;;;4995442;28;20046;-80
2021/07/02 09:55:19;;;;;;;5.40;3.50;;;;;;;;;;4995475;28;20495;-80
2021/07/02 09:57:45;;;;;;;10.93;3.88;;;;;;;;;;4989961;28;20962;-80
2021/07/02 10:00:14;;;;;;;5.30;3.45;;;;;;;;;;4995148;28;20410;-81
2021/07/02 10:02:52;;;;;;;5.65;3.72;;;;;;;;;;4994558;28;20057;-81
2021/07/02 10:05:18;;;;;;;4.60;3.33;;;;;;;;;;4995287;28;20390;-81
2021/07/02 10:07:55;;;;;;;5.45;3.80;;;;;;;;;;4994615;28;20056;-80
2021/07/02 10:10:24;;;;;;;4.68;3.33;;;;;;;;;;4995156;28;20062;-79
2021/07/02 10:12:50;;;;;;;4.50;3.15;;;;;;;;;;4994928;28;20050;-81
2021/07/02 10:15:17;;;;;;;4.47;3.30;;;;;;;;;;4994983;28;20057;-79
2021/07/02 10:17:44;;;;;;;4.45;3.17;;;;;;;;;;4995012;28;20051;-80
2021/07/02 10:20:12;;;;;;;4.82;3.40;;;;;;;;;;4995413;28;20054;-79
2021/07/02 10:22:41;;;;;;;4.95;3.00;;;;;;;;;;4995126;28;20063;-79
2021/07/02 10:25:08;;;;;;;5.40;3.15;;;;;;;;;;4994757;28;20132;-80
2021/07/02 10:27:37;;;;;;;6.78;2.97;;;;;;;;;;4994867;28;20423;-79
2021/07/02 10:30:04;;;;;;;4.40;3.17;;;;;;;;;;4994468;28;20068;-81
2021/07/02 10:32:32;;;;;;;4.13;2.78;;;;;;;;;;4994002;28;20097;-80
2021/07/02 10:34:59;;;;;;;3.92;2.88;;;;;;;;;;4995782;28;20043;-82
2021/07/02 10:37:27;;;;;;;4.70;2.63;;;;;;;;;;4995186;28;20169;-81
2021/07/02 10:39:53;;;;;;;3.60;2.58;;;;;;;;;;4995688;28;20487;-79
2021/07/02 10:42:20;;;;;;;6.25;3.33;;;;;;;;;;4999408;28;20081;-79
2021/07/02 10:45:12;;;;;;;3.88;2.83;;;;;;;;;;4999184;28;20058;-79
2021/07/02 10:47:50;;;;;;;4.50;2.90;;;;;;;;;;4978467;28;20042;-79
2021/07/02 10:50:40;;;;;;;5.88;3.10;;;;;;;;;;4988529;28;20047;-78
2021/07/02 10:53:26;;;;;;;5.43;3.22;;;;;;;;;;4987052;28;20648;-78
2021/07/02 10:55:53;;;;;;;3.55;2.58;;;;;;;;;;4997521;28;20046;-79
2021/07/02 10:58:22;;;;;;;4.63;3.03;;;;;;;;;;4998200;28;20066;-78
2021/07/02 11:01:09;;;;;;;3.95;2.80;;;;;;;;;;4998817;28;20129;-78
2021/07/02 11:03:35;;;;;;;3.03;2.28;;;;;;;;;;4998725;28;20116;-79
2021/07/02 11:06:12;;;;;;;4.85;2.85;;;;;;;;;;4998356;28;20057;-78
2021/07/02 11:08:44;;;;;;;5.25;2.75;;;;;;;;;;4997725;28;20053;-77
2021/07/02 11:11:11;;;;;;;4.45;3.08;;;;;;;;;;4997398;28;20117;-79
2021/07/02 11:14:08;;;;;;;4.90;2.97;;;;;;;;;;4997340;28;20053;-79
2021/07/02 11:17:14;;;;;;;4.15;2.58;;;;;;;;;;4997811;28;20478;-77
2021/07/02 11:19:40;;;;;;;3.38;2.70;;;;;;;;;;4978014;28;20499;-78
2021/07/02 11:22:28;;;;;;;3.90;2.80;;;;;;;;;;4978373;28;20047;-78
2021/07/02 11:25:01;;;;;;;3.60;2.70;;;;;;;;;;4977667;28;20094;-78
2021/07/02 11:27:39;;;;;;;4.13;2.75;;;;;;;;;;4978178;28;20431;-78
2021/07/02 11:30:09;;;;;;;4.85;3.40;;;;;;;;;;4978920;28;20487;-80
2021/07/02 11:32:37;;;;;;;6.47;2.72;;;;;;;;;;4995733;28;20129;-79
2021/07/02 11:35:16;;;;;;;3.95;2.83;;;;;;;;;;4979962;28;20055;-78
2021/07/02 11:38:01;;;;;;;6.70;2.85;;;;;;;;;;4977336;28;20463;-78
2021/07/02 11:40:30;;;;;;;3.60;2.65;;;;;;;;;;4977114;28;20101;-78
2021/07/02 11:42:56;;;;;;;3.42;2.50;;;;;;;;;;4978028;28;20074;-80
2021/07/02 11:45:36;;;;;;;3.83;2.67;;;;;;;;;;4979281;28;20050;-78
2021/07/02 11:48:06;;;;;;;4.70;3.00;;;;;;;;;;4979280;28;20117;-78
2021/07/02 11:50:42;;;;;;;5.57;3.10;;;;;;;;;;4981220;28;20057;-78
2021/07/02 11:53:10;;;;;;;3.85;2.85;;;;;;;;;;4977610;28;20050;-78
2021/07/02 11:55:36;;;;;;;4.05;2.95;;;;;;;;;;4976231;28;20051;-78
2021/07/02 11:58:16;;;;;;;3.67;2.15;;;;;;;;;;4976208;28;20499;-78
2021/07/02 12:00:42;;;;;;;4.03;3.00;;;;;;;;;;4977074;28;20121;-77
2021/07/02 12:03:10;;;;;;;3.75;2.60;;;;;;;;;;4982368;28;20054;-78
2021/07/02 12:05:37;;;;;;;5.03;2.50;;;;;;;;;;4981682;28;20043;-80
2021/07/02 12:08:04;;;;;;;3.25;2.35;;;;;;;;;;4989873;28;20557;-77
2021/07/02 12:10:30;;;;;;;3.22;2.38;;;;;;;;;;4993316;28;20611;-80
2021/07/02 12:13:07;;;;;;;4.60;2.92;;;;;;;;;;4978634;28;20075;-77
2021/07/02 12:15:33;;;;;;;5.43;2.83;;;;;;;;;;4986732;28;20053;-78
2021/07/02 12:18:02;;;;;;;3.70;2.80;;;;;;;;;;4988820;28;20047;-78
2021/07/02 12:20:30;;;;;;;4.40;2.92;;;;;;;;;;4980117;28;20109;-80
2021/07/02 12:23:05;;;;;;;3.60;2.53;;;;;;;;;;4985421;28;20046;-78
2021/07/02 12:25:32;;;;;;;;;;;;;;;;;;4997301;28;20046;-79
2021/07/02 12:27:59;;;;;;;3.65;2.65;;;;;;;;;;4997284;28;20280;-78
2021/07/02 12:30:27;;;;;;;3.60;2.50;;;;;;;;;;4997109;28;20054;-77
2021/07/02 12:32:55;;;;;;;4.15;2.88;;;;;;;;;;4989130;28;20510;-78
2021/07/02 12:35:21;;;;;;;4.53;2.75;;;;;;;;;;4976566;28;20055;-78
2021/07/02 12:37:49;;;;;;;3.83;2.67;;;;;;;;;;4976387;28;20047;-77
2021/07/02 12:40:16;;;;;;;3.08;2.35;;;;;;;;;;4976468;28;20046;-77
2021/07/02 12:42:45;;;;;;;4.13;2.75;;;;;;;;;;4977721;28;20049;-78
2021/07/02 12:45:12;;;;;;;3.13;2.20;;;;;;;;;;4977702;28;20057;-79
2021/07/02 12:47:41;;;;;;;3.65;2.38;;;;;;;;;;4976238;28;20484;-78
2021/07/02 12:50:12;;;;;;;3.50;2.58;;;;;;;;;;4988872;28;20086;-80
2021/07/02 12:55:27;;;;;;;3.47;2.58;;;;;;;;;;4998054;28;20081;-80
2021/07/02 12:57:56;;;;;;;3.63;2.63;;;;;;;;;;4991696;28;20051;-79
2021/07/02 13:00:27;;;;;;;4.28;2.65;;;;;;;;;;4987555;28;20050;-80
2021/07/02 13:02:56;;;;;;;3.53;2.63;;;;;;;;;;4995757;28;20043;-78
2021/07/02 13:12:20;;;;;;;5.70;3.13;;;;;;;;;;4996592;28;20134;-79
2021/07/02 13:14:47;;;;;;;4.13;2.80;;;;;;;;;;5002138;28;20046;-78
2021/07/02 13:17:14;;;;;;;3.45;2.47;;;;;;;;;;4989903;28;20038;-79
2021/07/02 13:19:40;;;;;;;14.23;3.17;;;;;;;;;;4993713;28;20050;-78
2021/07/02 13:22:15;;;;;;;5.32;2.45;;;;;;;;;;4977516;28;20049;-78
2021/07/02 13:24:42;;;;;;;3.58;2.50;;;;;;;;;;4992070;28;20054;-79
2021/07/02 13:27:10;;;;;;;5.55;2.55;;;;;;;;;;4992847;28;20057;-80
2021/07/02 13:29:38;;;;;;;4.78;2.40;;;;;;;;;;4995451;28;20046;-80
2021/07/02 13:32:06;;;;;;;4.28;2.60;;;;;;;;;;4997104;28;20051;-80
2021/07/02 13:34:40;;;;;;;4.03;2.58;;;;;;;;;;4996502;28;20074;-80
2021/07/02 13:37:07;;;;;;;3.83;2.10;;;;;;;;;;4995283;28;20043;-81
2021/07/02 13:39:39;;;;;;;3.13;2.40;;;;;;;;;;4995068;28;20102;-78
2021/07/02 13:42:08;;;;;;;3.35;2.33;;;;;;;;;;4995519;28;20081;-78
2021/07/02 13:44:39;;;;;;;4.45;2.55;;;;;;;;;;4988562;28;20042;-77
2021/07/02 13:47:08;;;;;;;4.03;2.80;;;;;;;;;;4984600;28;20053;-78
2021/07/02 13:49:37;;;;;;;3.60;2.25;;;;;;;;;;4985183;28;20046;-79
2021/07/02 13:52:04;;;;;;;5.78;2.75;;;;;;;;;;4977509;28;20046;-78
2021/07/02 13:54:31;;;;;;;3.90;2.45;;;;;;;;;;4977060;28;20051;-80
2021/07/02 13:56:58;;;;;;;5.43;3.03;;;;;;;;;;4978149;28;20484;-80
2021/07/02 13:59:24;;;;;;;4.07;2.58;;;;;;;;;;4979314;28;20050;-78
2021/07/02 14:01:51;;;;;;;4.15;2.38;;;;;;;;;;4983289;28;20066;-80
2021/07/02 14:04:18;;;;;;;3.45;2.53;;;;;;;;;;4979366;28;20054;-78
2021/07/02 14:06:45;;;;;;;5.25;3.08;;;;;;;;;;4977049;28;20571;-79
2021/07/02 14:09:13;;;;;;;4.47;2.55;;;;;;;;;;4978173;28;20047;-79
2021/07/02 14:11:40;;;;;;;5.43;3.60;;;;;;;;;;4978151;28;20051;-79
2021/07/02 14:14:07;;;;;;;5.68;3.65;;;;;;;;;;4976577;28;20700;-79
2021/07/02 14:16:34;;;;;;;4.30;3.17;;;;;;;;;;4981424;28;20055;-81
2021/07/02 14:19:02;;;;;;;5.72;2.97;;;;;;;;;;4985651;28;20043;-79
2021/07/02 14:21:30;;;;;;;6.10;2.80;;;;;;;;;;4999425;28;20050;-79
2021/07/02 14:23:56;;;;;;;4.53;3.55;;;;;;;;;;4996603;28;20053;-79
2021/07/02 14:26:23;;;;;;;8.50;2.97;;;;;;;;;;4981139;28;20057;-79
2021/07/02 14:28:49;;;;;;;9.27;3.40;;;;;;;;;;4981872;28;20054;-79
2021/07/02 14:31:15;;;;;;;4.45;2.75;;;;;;;;;;4996421;28;20053;-79
2021/07/02 14:33:42;;;;;;;3.80;2.75;;;;;;;;;;4996632;28;20054;-78
2021/07/02 14:36:10;;;;;;;3.72;2.30;;;;;;;;;;4996820;28;20053;-78
2021/07/02 14:38:38;;;;;;;4.13;3.03;;;;;;;;;;4995955;28;20053;-79
2021/07/02 14:41:04;;;;;;;3.65;2.50;;;;;;;;;;4996915;28;20042;-78
2021/07/02 14:43:31;;;;;;;3.47;2.60;;;;;;;;;;4997137;28;20043;-79
2021/07/02 14:45:57;;;;;;;3.35;2.80;;;;;;;;;;4997670;28;20055;-79
2021/07/02 14:48:27;;;;;;;5.35;2.58;;;;;;;;;;4997473;28;20053;-80
2021/07/02 14:50:53;;;;;;;3.78;2.70;;;;;;;;;;4997337;28;20050;-79
2021/07/02 14:53:20;;;;;;;3.28;2.58;;;;;;;;;;4997050;28;20522;-80
2021/07/02 14:55:48;;;;;;;4.43;3.10;;;;;;;;;;4996801;28;20454;-80
2021/07/02 14:58:14;;;;;;;3.90;2.92;;;;;;;;;;4996952;28;20050;-80
2021/07/02 15:00:41;;;;;;;3.60;2.80;;;;;;;;;;4984035;28;20411;-79